createdAt,value
2023-05-10T00:00:01.162Z,945.7255
2023-05-10T00:01:02.181Z,945.6995
2023-05-10T00:02:03.168Z,945.7139
2023-05-10T00:03:04.421Z,945.7250
2023-05-10T00:04:05.425Z,945.7150
2023-05-10T00:05:06.446Z,945.7178
2023-05-10T00:06:07.386Z,945.7466
2023-05-10T00:07:08.986Z,945.7534
2023-05-10T00:08:10.029Z,945.7534
2023-05-10T00:09:11.035Z,945.7550
2023-05-10T00:10:12.037Z,945.7511
2023-05-10T00:11:13.048Z,945.7556
2023-05-10T00:12:14.055Z,945.7366
2023-05-10T00:13:15.093Z,945.7322
2023-05-10T00:14:16.109Z,945.7278
2023-05-10T00:15:17.124Z,945.7300
2023-05-10T00:16:18.121Z,945.7294
2023-05-10T00:17:19.155Z,945.7428
2023-05-10T00:18:20.228Z,945.7361
2023-05-10T00:19:33.025Z,945.7484
2023-05-10T00:20:24.191Z,945.7367
2023-05-10T00:21:25.174Z,945.7600
2023-05-10T00:22:26.115Z,945.7645
2023-05-10T00:23:27.009Z,945.7266
2023-05-10T00:24:27.848Z,945.7472
2023-05-10T00:25:28.743Z,945.7466
2023-05-10T00:26:29.760Z,945.7500
2023-05-10T00:27:30.779Z,945.7656
2023-05-10T00:28:31.792Z,945.7739
2023-05-10T00:29:32.827Z,945.7833
2023-05-10T00:30:33.888Z,945.7966
2023-05-10T00:31:34.915Z,945.7905
2023-05-10T00:32:36.070Z,945.8039
2023-05-10T00:33:37.083Z,945.8066
2023-05-10T00:34:38.118Z,945.8461
2023-05-10T00:35:39.213Z,945.8528
2023-05-10T00:36:40.121Z,945.8700
2023-05-10T00:37:41.160Z,945.8861
2023-05-10T00:38:42.206Z,945.8811
2023-05-10T00:39:43.162Z,945.9061
2023-05-10T00:40:44.162Z,945.8839
2023-05-10T00:41:45.110Z,945.8934
2023-05-10T00:42:46.188Z,945.8889
2023-05-10T00:43:47.176Z,945.9083
2023-05-10T00:44:48.231Z,945.9183
2023-05-10T00:45:49.242Z,945.9461
2023-05-10T00:46:50.240Z,945.9428
2023-05-10T00:47:51.268Z,945.9461
2023-05-10T00:48:52.258Z,945.9644
2023-05-10T00:49:53.190Z,945.9728
2023-05-10T00:50:54.292Z,945.9728
2023-05-10T00:51:55.283Z,945.9844
2023-05-10T00:52:56.314Z,945.9995
2023-05-10T00:53:57.289Z,945.9944
2023-05-10T00:54:58.359Z,945.9822
2023-05-10T00:55:59.364Z,945.9978
2023-05-10T00:57:00.447Z,946.0034
2023-05-10T00:58:01.338Z,946.0134
2023-05-10T00:59:02.413Z,946.0222
2023-05-10T01:00:03.346Z,946.0106
2023-05-10T01:01:04.412Z,946.0378
2023-05-10T01:02:05.446Z,946.0489
2023-05-10T01:03:06.505Z,946.0583
2023-05-10T01:04:07.396Z,946.0516
2023-05-10T01:05:08.278Z,946.0550
2023-05-10T01:06:09.018Z,946.0689
2023-05-10T01:07:09.889Z,946.0589
2023-05-10T01:08:10.760Z,946.0561
2023-05-10T01:09:11.632Z,946.0667
2023-05-10T01:10:12.487Z,946.0650
2023-05-10T01:11:13.336Z,946.0372
2023-05-10T01:12:14.204Z,946.0195
2023-05-10T01:13:15.035Z,946.0317
2023-05-10T01:14:16.003Z,946.0433
2023-05-10T01:15:17.015Z,946.0344
2023-05-10T01:16:18.059Z,946.0306
2023-05-10T01:17:19.134Z,946.0356
2023-05-10T01:18:20.041Z,946.0389
2023-05-10T01:19:21.169Z,946.0383
2023-05-10T01:20:23.080Z,946.0416
2023-05-10T01:21:24.040Z,946.0583
2023-05-10T01:22:25.062Z,946.0428
2023-05-10T01:23:26.122Z,946.0594
2023-05-10T01:24:27.123Z,946.0656
2023-05-10T01:25:28.141Z,946.0806
2023-05-10T01:26:53.439Z,946.0872
2023-05-10T01:27:31.645Z,946.0845
2023-05-10T01:28:32.552Z,946.1237
2023-05-10T01:29:33.639Z,946.1011
2023-05-10T01:30:34.594Z,946.0978
2023-05-10T01:31:35.638Z,946.0939
2023-05-10T01:32:36.604Z,946.1028
2023-05-10T01:33:37.605Z,946.0906
2023-05-10T01:34:38.606Z,946.0856
2023-05-10T01:35:39.670Z,946.0684
2023-05-10T01:36:40.638Z,946.0800
2023-05-10T01:37:41.636Z,946.0734
2023-05-10T01:38:42.589Z,946.0917
2023-05-10T01:39:43.623Z,946.0944
2023-05-10T01:40:44.668Z,946.0828
2023-05-10T01:41:45.488Z,946.0817
2023-05-10T01:42:47.390Z,946.0867
2023-05-10T01:43:48.167Z,946.0839
2023-05-10T01:44:49.052Z,946.0795
2023-05-10T01:45:49.813Z,946.0656
2023-05-10T01:46:50.736Z,946.0806
2023-05-10T01:47:51.605Z,946.1044
2023-05-10T01:48:52.500Z,946.0961
2023-05-10T01:49:53.319Z,946.1044
2023-05-10T01:50:54.272Z,946.1067
2023-05-10T01:51:55.209Z,946.1172
2023-05-10T01:52:56.078Z,946.1211
2023-05-10T01:53:56.964Z,946.1261
2023-05-10T01:54:57.828Z,946.1389
2023-05-10T01:55:58.638Z,946.1467
2023-05-10T01:56:59.473Z,946.1639
2023-05-10T01:58:00.321Z,946.1766
2023-05-10T01:59:01.195Z,946.1878
2023-05-10T02:00:02.022Z,946.1866
2023-05-10T02:01:02.916Z,946.1900
2023-05-10T02:02:03.753Z,946.1900
2023-05-10T02:03:04.720Z,946.1855
2023-05-10T02:04:06.563Z,946.1850
2023-05-10T02:05:07.454Z,946.2067
2023-05-10T02:06:08.304Z,946.1967
2023-05-10T02:07:09.255Z,946.1956
2023-05-10T02:08:09.996Z,946.1850
2023-05-10T02:09:10.850Z,946.1672
2023-05-10T02:10:11.724Z,946.1456
2023-05-10T02:11:12.559Z,946.1278
2023-05-10T02:12:13.373Z,946.1550
2023-05-10T02:13:14.333Z,946.1672
2023-05-10T02:14:15.143Z,946.1583
2023-05-10T02:15:16.070Z,946.1361
2023-05-10T02:16:16.987Z,946.1306
2023-05-10T02:17:19.004Z,946.1589
2023-05-10T02:18:20.366Z,946.1284
2023-05-10T02:19:21.188Z,946.1061
2023-05-10T02:20:22.095Z,946.0900
2023-05-10T02:21:22.908Z,946.0817
2023-05-10T02:22:23.787Z,946.0600
2023-05-10T02:23:24.616Z,946.0778
2023-05-10T02:24:25.468Z,946.0834
2023-05-10T02:25:26.334Z,946.0961
2023-05-10T02:26:27.341Z,946.0978
2023-05-10T02:27:28.099Z,946.1039
2023-05-10T02:28:29.000Z,946.1083
2023-05-10T02:29:29.862Z,946.0967
2023-05-10T02:30:30.732Z,946.1128
2023-05-10T02:31:31.585Z,946.1122
2023-05-10T02:32:32.484Z,946.1255
2023-05-10T02:33:33.265Z,946.1467
2023-05-10T02:34:34.244Z,946.1489
2023-05-10T02:35:36.229Z,946.1666
2023-05-10T02:36:37.134Z,946.1567
2023-05-10T02:37:37.943Z,946.1445
2023-05-10T02:38:38.777Z,946.1411
2023-05-10T02:39:39.600Z,946.1322
2023-05-10T02:40:40.462Z,946.1122
2023-05-10T02:41:41.258Z,946.1189
2023-05-10T02:42:42.186Z,946.1250
2023-05-10T02:43:43.019Z,946.1116
2023-05-10T02:44:43.895Z,946.1200
2023-05-10T02:45:44.737Z,946.1328
2023-05-10T02:46:45.609Z,946.1083
2023-05-10T02:47:46.436Z,946.1178
2023-05-10T02:48:47.280Z,946.1295
2023-05-10T02:49:48.162Z,946.1234
2023-05-10T02:50:48.998Z,946.1133
2023-05-10T02:51:49.849Z,946.1111
2023-05-10T02:52:50.656Z,946.1166
2023-05-10T02:53:51.541Z,946.1306
2023-05-10T02:54:52.369Z,946.1216
2023-05-10T02:55:53.266Z,946.1116
2023-05-10T02:56:54.227Z,946.1317
2023-05-10T02:57:55.033Z,946.1100
2023-05-10T02:58:55.976Z,946.0922
2023-05-10T02:59:56.790Z,946.0895
2023-05-10T03:00:57.637Z,946.0628
2023-05-10T03:01:58.561Z,946.0750
2023-05-10T03:02:59.479Z,946.0589
2023-05-10T03:04:00.452Z,946.0478
2023-05-10T03:05:01.528Z,946.0344
2023-05-10T03:06:02.514Z,946.0544
2023-05-10T03:07:03.557Z,946.0400
2023-05-10T03:08:04.598Z,946.0122
2023-05-10T03:09:05.666Z,946.0328
2023-05-10T03:10:06.699Z,946.0444
2023-05-10T03:11:07.762Z,946.0378
2023-05-10T03:12:08.696Z,946.0450
2023-05-10T03:13:09.738Z,946.0645
2023-05-10T03:14:11.651Z,946.0645
2023-05-10T03:15:12.691Z,946.0706
2023-05-10T03:16:13.819Z,946.1006
2023-05-10T03:17:14.870Z,946.1139
2023-05-10T03:18:15.947Z,946.1178
2023-05-10T03:19:16.944Z,946.1295
2023-05-10T03:20:18.217Z,946.1500
2023-05-10T03:21:19.367Z,946.1655
2023-05-10T03:22:20.480Z,946.1578
2023-05-10T03:23:21.463Z,946.1644
2023-05-10T03:24:22.356Z,946.1722
2023-05-10T03:25:23.452Z,946.1861
2023-05-10T03:26:24.283Z,946.2128
2023-05-10T03:27:25.046Z,946.2122
2023-05-10T03:28:26.405Z,946.2372
2023-05-10T03:29:27.289Z,946.2267
2023-05-10T03:30:28.244Z,946.2266
2023-05-10T03:31:29.146Z,946.2261
2023-05-10T03:32:30.003Z,946.2250
2023-05-10T03:33:30.844Z,946.2133
2023-05-10T03:34:31.704Z,946.2328
2023-05-10T03:35:32.500Z,946.2261
2023-05-10T03:36:33.421Z,946.2178
2023-05-10T03:37:34.474Z,946.2294
2023-05-10T03:38:35.352Z,946.2350
2023-05-10T03:39:36.164Z,946.2294
2023-05-10T03:40:37.033Z,946.2561
2023-05-10T03:41:37.877Z,946.2584
2023-05-10T03:42:38.738Z,946.2522
2023-05-10T03:43:39.517Z,946.2689
2023-05-10T03:44:40.383Z,946.2883
2023-05-10T03:45:41.204Z,946.3044
2023-05-10T03:46:42.157Z,946.3066
2023-05-10T03:47:42.977Z,946.3072
2023-05-10T03:48:43.790Z,946.3100
2023-05-10T03:49:44.585Z,946.3044
2023-05-10T03:50:45.586Z,946.2961
2023-05-10T03:51:46.520Z,946.3039
2023-05-10T03:52:47.492Z,946.2867
2023-05-10T03:53:48.431Z,946.2900
2023-05-10T03:54:49.437Z,946.3134
2023-05-10T03:55:50.480Z,946.3122
2023-05-10T03:56:51.565Z,946.3256
2023-05-10T03:57:52.483Z,946.3150
2023-05-10T03:58:53.459Z,946.3239
2023-05-10T03:59:54.498Z,946.3472
2023-05-10T04:00:55.495Z,946.3467
2023-05-10T04:01:56.462Z,946.3639
2023-05-10T04:02:57.579Z,946.3522
2023-05-10T04:03:58.589Z,946.3533
2023-05-10T04:04:59.640Z,946.3705
2023-05-10T04:06:00.585Z,946.3505
2023-05-10T04:07:01.635Z,946.3517
2023-05-10T04:08:02.575Z,946.3755
2023-05-10T04:09:03.631Z,946.3750
2023-05-10T04:10:04.534Z,946.3761
2023-05-10T04:11:05.479Z,946.3811
2023-05-10T04:12:07.961Z,946.3661
2023-05-10T04:13:07.761Z,946.3700
2023-05-10T04:14:08.664Z,946.3564
2023-05-10T04:15:09.506Z,946.3411
2023-05-10T04:16:10.285Z,946.3234
2023-05-10T04:17:11.330Z,946.3100
2023-05-10T04:18:12.441Z,946.2905
2023-05-10T04:19:13.401Z,946.2800
2023-05-10T04:20:14.501Z,946.2572
2023-05-10T04:21:15.565Z,946.2366
2023-05-10T04:22:16.566Z,946.2322
2023-05-10T04:23:17.780Z,946.2534
2023-05-10T04:24:18.834Z,946.2706
2023-05-10T04:25:19.878Z,946.2695
2023-05-10T04:26:20.915Z,946.2861
2023-05-10T04:27:21.865Z,946.2983
2023-05-10T04:28:22.913Z,946.3094
2023-05-10T04:29:23.964Z,946.3211
2023-05-10T04:30:24.897Z,946.3339
2023-05-10T04:31:26.019Z,946.3555
2023-05-10T04:32:27.112Z,946.3766
2023-05-10T04:33:28.137Z,946.3945
2023-05-10T04:34:29.149Z,946.4089
2023-05-10T04:35:30.169Z,946.4183
2023-05-10T04:36:31.153Z,946.4289
2023-05-10T04:37:32.213Z,946.4427
2023-05-10T04:38:33.044Z,946.4534
2023-05-10T04:39:33.947Z,946.4628
2023-05-10T04:40:34.854Z,946.4811
2023-05-10T04:41:35.857Z,946.4955
2023-05-10T04:42:36.895Z,946.4805
2023-05-10T04:43:37.875Z,946.4583
2023-05-10T04:44:38.974Z,946.4705
2023-05-10T04:45:39.928Z,946.4928
2023-05-10T04:46:41.114Z,946.4694
2023-05-10T04:47:42.156Z,946.5000
2023-05-10T04:48:43.222Z,946.5067
2023-05-10T04:49:44.309Z,946.5028
2023-05-10T04:50:46.422Z,946.4944
2023-05-10T04:51:47.428Z,946.4961
2023-05-10T04:52:48.476Z,946.4966
2023-05-10T04:54:01.721Z,946.4950
2023-05-10T04:54:49.912Z,946.5061
2023-05-10T04:55:50.924Z,946.4925
2023-05-10T04:56:51.998Z,946.5106
2023-05-10T04:57:52.993Z,946.5483
2023-05-10T04:58:54.052Z,946.5405
2023-05-10T04:59:55.082Z,946.5528
2023-05-10T05:00:56.162Z,946.5544
2023-05-10T05:01:57.274Z,946.5461
2023-05-10T05:02:58.531Z,946.5450
2023-05-10T05:03:59.790Z,946.5550
2023-05-10T05:05:01.934Z,946.5634
2023-05-10T05:06:02.801Z,946.5656
2023-05-10T05:07:03.746Z,946.5711
2023-05-10T05:08:04.644Z,946.5828
2023-05-10T05:09:05.571Z,946.5867
2023-05-10T05:10:06.391Z,946.5978
2023-05-10T05:11:07.445Z,946.6083
2023-05-10T05:12:08.178Z,946.6245
2023-05-10T05:13:09.233Z,946.6334
2023-05-10T05:14:10.220Z,946.6472
2023-05-10T05:15:11.127Z,946.6589
2023-05-10T05:16:12.187Z,946.6655
2023-05-10T05:17:14.030Z,946.6794
2023-05-10T05:18:14.954Z,946.6839
2023-05-10T05:19:15.763Z,946.7000
2023-05-10T05:20:16.976Z,946.7244
2023-05-10T05:21:18.144Z,946.7466
2023-05-10T05:22:19.596Z,946.7672
2023-05-10T05:23:20.656Z,946.7706
2023-05-10T05:24:21.696Z,946.8022
2023-05-10T05:25:22.495Z,946.8055
2023-05-10T05:26:23.477Z,946.8239
2023-05-10T05:27:24.312Z,946.8383
2023-05-10T05:28:25.260Z,946.8511
2023-05-10T05:29:26.079Z,946.8439
2023-05-10T05:30:26.981Z,946.8583
2023-05-10T05:31:27.986Z,946.8550
2023-05-10T05:32:29.083Z,946.8661
2023-05-10T05:33:30.092Z,946.8633
2023-05-10T05:34:31.253Z,946.8750
2023-05-10T05:35:32.260Z,946.8861
2023-05-10T05:45:32.891Z,946.9039
2023-05-10T05:45:32.891Z,946.9100
2023-05-10T05:45:32.891Z,946.9089
2023-05-10T05:46:35.085Z,946.9100
2023-05-10T05:47:36.301Z,946.9178
2023-05-10T05:48:37.305Z,946.9278
2023-05-10T05:49:38.389Z,946.9222
2023-05-10T05:50:39.409Z,946.9216
2023-05-10T05:51:40.413Z,946.9105
2023-05-10T05:52:41.512Z,946.9244
2023-05-10T05:53:42.576Z,946.9311
2023-05-10T05:54:43.649Z,946.9316
2023-05-10T05:55:44.725Z,946.9422
2023-05-10T05:56:45.773Z,946.9422
2023-05-10T06:02:20.821Z,946.9595
2023-05-10T06:02:20.821Z,946.9600
2023-05-10T06:03:39.597Z,946.9700
2023-05-10T06:04:42.795Z,947.0000
2023-05-10T06:05:30.355Z,947.0107
2023-05-10T06:06:31.301Z,947.0031
2023-05-10T06:07:32.293Z,947.0089
2023-05-10T06:10:18.265Z,947.0300
2023-05-10T06:11:22.221Z,947.0500
2023-05-10T06:12:21.083Z,947.0695
2023-05-10T06:13:21.997Z,947.0994
2023-05-10T06:14:22.900Z,947.1216
2023-05-10T06:16:25.552Z,947.1445
2023-05-10T06:17:26.591Z,947.1422
2023-05-10T06:19:52.319Z,947.1644
2023-05-10T06:20:30.614Z,947.1886
2023-05-10T06:21:31.493Z,947.1991
2023-05-10T06:22:32.470Z,947.2344
2023-05-10T06:23:33.260Z,947.2411
2023-05-10T06:24:34.200Z,947.2478
2023-05-10T06:25:35.074Z,947.2806
2023-05-10T06:26:35.919Z,947.2522
2023-05-10T06:27:36.775Z,947.2722
2023-05-10T06:28:37.661Z,947.2994
2023-05-10T06:29:38.544Z,947.3333
2023-05-10T06:30:39.431Z,947.3666
2023-05-10T06:31:40.364Z,947.3689
2023-05-10T06:32:41.177Z,947.3806
2023-05-10T06:33:42.120Z,947.3834
2023-05-10T06:34:42.932Z,947.3961
2023-05-10T06:35:43.885Z,947.3928
2023-05-10T06:36:44.744Z,947.3711
2023-05-10T06:37:45.544Z,947.3672
2023-05-10T06:38:46.463Z,947.3950
2023-05-10T06:39:47.312Z,947.4067
2023-05-10T06:40:48.340Z,947.4017
2023-05-10T06:41:49.529Z,947.3967
2023-05-10T06:42:50.523Z,947.4050
2023-05-10T06:43:51.513Z,947.4028
2023-05-10T06:44:52.614Z,947.4105
2023-05-10T06:45:53.718Z,947.4078
2023-05-10T06:46:54.766Z,947.4128
2023-05-10T06:47:55.859Z,947.3950
2023-05-10T06:48:57.284Z,947.4089
2023-05-10T06:50:00.325Z,947.3828
2023-05-10T06:51:02.908Z,947.3784
2023-05-10T06:52:04.001Z,947.3928
2023-05-10T06:53:05.038Z,947.4189
2023-05-10T06:54:06.044Z,947.4205
2023-05-10T06:55:06.995Z,947.4239
2023-05-10T06:56:07.954Z,947.4061
2023-05-10T06:57:16.004Z,947.4244
2023-05-10T07:00:12.805Z,947.4281
2023-05-10T07:01:13.927Z,947.4200
2023-05-10T07:02:15.410Z,947.4339
2023-05-10T07:03:17.296Z,947.4428
2023-05-10T07:04:18.543Z,947.4250
2023-05-10T07:05:21.233Z,947.4211
2023-05-10T07:06:32.914Z,947.4144
2023-05-10T07:07:23.239Z,947.4022
2023-05-10T07:08:24.486Z,947.3912
2023-05-10T07:09:25.642Z,947.3795
2023-05-10T07:10:26.722Z,947.4017
2023-05-10T07:11:27.941Z,947.4128
2023-05-10T07:12:29.074Z,947.4094
2023-05-10T07:13:30.206Z,947.4222
2023-05-10T07:14:31.361Z,947.4294
2023-05-10T07:15:32.826Z,947.4528
2023-05-10T07:16:34.044Z,947.5022
2023-05-10T07:17:35.110Z,947.5084
2023-05-10T07:18:36.360Z,947.5072
2023-05-10T07:19:37.471Z,947.5106
2023-05-10T07:20:38.581Z,947.5239
2023-05-10T07:21:39.754Z,947.5211
2023-05-10T07:22:40.850Z,947.5150
2023-05-10T07:23:43.681Z,947.5172
2023-05-10T07:24:42.763Z,947.5533
2023-05-10T07:25:43.810Z,947.5406
2023-05-10T07:27:08.189Z,947.5283
2023-05-10T07:27:46.862Z,947.5356
2023-05-10T07:28:47.884Z,947.5391
2023-05-10T07:29:48.949Z,947.5455
2023-05-10T07:30:49.965Z,947.5750
2023-05-10T07:32:00.238Z,947.5889
2023-05-10T07:33:52.236Z,947.6144
2023-05-10T07:34:02.659Z,947.5834
2023-05-10T07:37:16.308Z,947.6100
2023-05-10T07:37:16.308Z,947.6375
2023-05-10T07:40:50.725Z,947.6500
2023-05-10T07:40:50.725Z,947.6321
2023-05-10T07:40:50.725Z,947.6400
2023-05-10T07:41:51.659Z,947.6500
2023-05-10T07:43:57.030Z,947.6578
2023-05-10T07:47:01.213Z,947.6475
2023-05-10T07:47:01.213Z,947.6441
2023-05-10T07:48:03.179Z,947.6500
2023-05-10T07:49:04.365Z,947.6722
2023-05-10T07:50:05.258Z,947.6884
2023-05-10T07:52:27.111Z,947.6967
2023-05-10T07:52:27.111Z,947.6800
2023-05-10T07:53:15.597Z,947.6775
2023-05-10T07:54:16.748Z,947.6779
2023-05-10T07:55:17.906Z,947.6984
2023-05-10T07:56:19.890Z,947.6984
2023-05-10T07:57:21.059Z,947.6917
2023-05-10T07:58:23.472Z,947.6961
2023-05-10T07:59:25.484Z,947.7172
2023-05-10T08:00:26.598Z,947.7089
2023-05-10T08:01:27.777Z,947.7244
2023-05-10T08:02:28.880Z,947.7339
2023-05-10T08:03:31.011Z,947.7867
2023-05-10T08:04:32.179Z,947.7400
2023-05-10T08:05:35.236Z,947.7617
2023-05-10T08:06:33.603Z,947.7505
2023-05-10T08:07:34.720Z,947.7400
2023-05-10T08:08:35.769Z,947.7416
2023-05-10T08:09:36.833Z,947.7316
2023-05-10T08:10:38.020Z,947.7172
2023-05-10T08:11:39.327Z,947.7339
2023-05-10T08:12:40.280Z,947.7294
2023-05-10T08:13:41.339Z,947.7322
2023-05-10T08:14:42.409Z,947.7316
2023-05-10T08:15:43.489Z,947.7422
2023-05-10T08:27:01.758Z,947.7450
2023-05-10T08:27:01.758Z,947.7244
2023-05-10T08:27:01.758Z,947.7000
2023-05-10T08:28:02.720Z,947.7475
2023-05-10T08:29:03.908Z,947.7822
2023-05-10T08:30:04.940Z,947.7872
2023-05-10T08:31:06.228Z,947.7772
2023-05-10T08:32:07.364Z,947.7484
2023-05-10T08:33:08.940Z,947.7817
2023-05-10T08:35:27.660Z,947.7422
2023-05-10T08:35:27.660Z,947.7584
2023-05-10T08:36:28.627Z,947.7300
2023-05-10T08:37:29.709Z,947.7344
2023-05-10T08:38:30.801Z,947.7305
2023-05-10T08:41:32.471Z,947.7189
2023-05-10T08:42:31.150Z,947.7300
2023-05-10T08:43:30.726Z,947.7419
2023-05-10T08:44:32.350Z,947.7453
2023-05-10T08:45:33.541Z,947.7595
2023-05-10T08:48:40.610Z,947.7817
2023-05-10T08:48:40.610Z,947.7672
2023-05-10T08:50:50.739Z,947.7700
2023-05-10T08:50:50.739Z,947.7939
2023-05-10T08:51:52.907Z,947.8000
2023-05-10T08:52:53.858Z,947.8261
2023-05-10T08:53:54.858Z,947.8295
2023-05-10T08:54:55.938Z,947.8184
2023-05-10T08:55:57.854Z,947.8356
2023-05-10T08:56:58.987Z,947.8450
2023-05-10T08:58:00.205Z,947.8511
2023-05-10T08:59:01.087Z,947.8678
2023-05-10T09:00:02.182Z,947.8828
2023-05-10T09:01:03.338Z,947.8995
2023-05-10T09:02:04.384Z,947.8950
2023-05-10T09:03:07.985Z,947.9128
2023-05-10T09:04:07.714Z,947.8961
2023-05-10T09:05:09.448Z,947.8989
2023-05-10T09:06:12.452Z,947.8806
2023-05-10T09:07:15.114Z,947.8817
2023-05-10T09:08:15.505Z,947.9144
2023-05-10T09:11:34.134Z,947.9224
2023-05-10T09:15:28.050Z,947.9300
2023-05-10T09:15:28.050Z,947.9229
2023-05-10T09:16:56.696Z,947.9300
2023-05-10T09:17:16.420Z,947.9164
2023-05-10T09:19:27.789Z,947.9361
2023-05-10T09:20:24.148Z,947.9393
2023-05-10T09:23:51.891Z,947.9594
2023-05-10T09:23:51.891Z,947.9733
2023-05-10T09:26:07.268Z,947.9800
2023-05-10T09:29:12.494Z,947.9759
2023-05-10T09:29:12.494Z,947.9800
2023-05-10T09:33:05.495Z,948.0000
2023-05-10T09:33:05.495Z,948.0211
2023-05-10T09:33:05.495Z,948.0200
2023-05-10T09:34:05.697Z,948.0200
2023-05-10T09:35:07.270Z,948.0182
2023-05-10T09:36:08.224Z,948.0189
2023-05-10T09:37:09.671Z,948.0178
2023-05-10T09:38:10.886Z,948.0339
2023-05-10T09:44:56.918Z,948.0195
2023-05-10T09:44:56.918Z,947.9911
2023-05-10T09:44:56.918Z,948.0100
2023-05-10T09:46:04.206Z,947.9866
2023-05-10T09:49:21.156Z,947.9981
2023-05-10T09:49:21.156Z,948.0071
2023-05-10T09:51:47.164Z,947.9661
2023-05-10T09:56:57.421Z,947.9300
2023-05-10T09:58:10.342Z,947.9300
2023-05-10T09:59:12.307Z,947.9583
2023-05-10T10:03:24.983Z,947.9693
2023-05-10T10:03:24.983Z,947.9636
2023-05-10T10:06:18.916Z,947.9600
2023-05-10T10:07:09.099Z,947.9400
2023-05-10T10:08:25.218Z,947.9453
2023-05-10T10:09:19.621Z,947.9444
2023-05-10T10:10:17.921Z,947.9375
2023-05-10T10:11:15.145Z,947.9493
2023-05-10T10:12:26.624Z,947.9713
2023-05-10T10:15:47.272Z,947.9600
2023-05-10T10:15:47.272Z,947.9669
2023-05-10T10:15:47.272Z,947.9400
2023-05-10T10:16:59.905Z,947.9400
2023-05-10T10:17:48.630Z,947.9300
2023-05-10T10:18:49.639Z,947.9325
2023-05-10T10:20:12.894Z,947.9500
2023-05-10T10:20:54.390Z,947.9278
2023-05-10T10:21:55.408Z,947.9067
2023-05-10T10:23:57.954Z,947.8945
2023-05-10T10:24:58.947Z,947.8750
2023-05-10T10:25:59.859Z,947.8755
2023-05-10T10:27:00.817Z,947.8600
2023-05-10T10:28:01.837Z,947.8283
2023-05-10T10:29:02.997Z,947.8289
2023-05-10T10:30:04.128Z,947.8361
2023-05-10T10:31:05.101Z,947.8284
2023-05-10T10:32:06.063Z,947.8122
2023-05-10T10:33:16.616Z,947.8161
2023-05-10T10:34:07.524Z,947.8222
2023-05-10T10:35:09.550Z,947.8362
2023-05-10T10:36:10.650Z,947.8544
2023-05-10T10:37:11.668Z,947.8750
2023-05-10T10:38:12.671Z,947.8639
2023-05-10T10:39:13.813Z,947.8711
2023-05-10T10:40:15.224Z,947.8784
2023-05-10T10:41:20.011Z,947.8644
2023-05-10T10:42:17.939Z,947.8483
2023-05-10T10:43:18.963Z,947.8347
2023-05-10T10:45:21.742Z,947.8494
2023-05-10T10:46:22.831Z,947.8400
2023-05-10T10:47:23.953Z,947.8600
2023-05-10T10:48:25.021Z,947.8755
2023-05-10T10:49:26.068Z,947.8444
2023-05-10T10:50:36.643Z,947.8555
2023-05-10T10:51:35.676Z,947.8633
2023-05-10T10:52:38.247Z,947.8640
2023-05-10T10:53:40.776Z,947.8706
2023-05-10T10:54:42.759Z,947.8606
2023-05-10T10:55:46.795Z,947.8431
2023-05-10T10:56:45.269Z,947.8300
2023-05-10T10:57:39.875Z,947.7966
2023-05-10T10:58:40.892Z,947.7706
2023-05-10T10:59:42.024Z,947.7600
2023-05-10T11:00:43.104Z,947.7667
2023-05-10T11:01:44.520Z,947.7411
2023-05-10T11:02:45.653Z,947.7244
2023-05-10T11:03:54.993Z,947.7200
2023-05-10T11:04:49.770Z,947.7283
2023-05-10T11:05:50.947Z,947.7544
2023-05-10T11:06:52.013Z,947.7567
2023-05-10T11:07:53.138Z,947.7572
2023-05-10T11:08:54.266Z,947.7717
2023-05-10T11:10:03.460Z,947.7844
2023-05-10T11:10:58.025Z,947.7867
2023-05-10T11:11:59.126Z,947.8037
2023-05-10T11:13:07.450Z,947.7889
2023-05-10T11:14:02.139Z,947.7861
2023-05-10T11:15:03.149Z,947.7762
2023-05-10T11:16:04.364Z,947.8005
2023-05-10T11:17:06.537Z,947.8211
2023-05-10T11:18:15.984Z,947.8306
2023-05-10T11:19:10.804Z,947.8450
2023-05-10T11:20:20.968Z,947.8387
2023-05-10T11:21:23.489Z,947.8328
2023-05-10T11:22:25.952Z,947.8200
2023-05-10T11:23:29.026Z,947.8287
2023-05-10T11:24:31.512Z,947.7956
2023-05-10T11:25:34.015Z,947.7819
2023-05-10T11:26:36.677Z,947.7756
2023-05-10T11:27:39.047Z,947.7644
2023-05-10T11:28:31.433Z,947.7681
2023-05-10T11:29:33.452Z,947.7614
2023-05-10T11:30:42.100Z,947.7761
2023-05-10T11:31:44.623Z,947.7700
2023-05-10T11:32:36.913Z,947.7488
2023-05-10T11:33:46.585Z,947.7300
2023-05-10T11:34:39.084Z,947.7422
2023-05-10T11:35:49.511Z,947.7407
2023-05-10T11:36:50.067Z,947.7378
2023-05-10T11:37:49.810Z,947.7253
2023-05-10T11:38:44.487Z,947.7354
2023-05-10T11:39:45.488Z,947.6856
2023-05-10T11:40:55.607Z,947.6761
2023-05-10T11:42:21.138Z,947.6683
2023-05-10T11:42:49.728Z,947.6693
2023-05-10T11:43:50.858Z,947.6687
2023-05-10T11:44:52.090Z,947.6766
2023-05-10T11:45:53.092Z,947.6666
2023-05-10T11:47:03.620Z,947.6833
2023-05-10T11:48:03.815Z,947.6872
2023-05-10T11:49:04.176Z,947.6900
2023-05-10T11:50:06.757Z,947.7100
2023-05-10T11:51:09.245Z,947.7137
2023-05-10T11:52:03.907Z,947.7312
2023-05-10T11:53:04.923Z,947.7250
2023-05-10T11:54:06.016Z,947.7200
2023-05-10T11:55:07.066Z,947.7239
2023-05-10T11:56:08.152Z,947.7111
2023-05-10T11:57:18.727Z,947.7100
2023-05-10T11:58:17.793Z,947.7189
2023-05-10T11:59:12.628Z,947.7193
2023-05-10T12:00:14.450Z,947.7475
2023-05-10T12:01:15.413Z,947.7650
2023-05-10T12:02:26.730Z,947.7475
2023-05-10T12:03:19.313Z,947.7444
2023-05-10T12:04:21.569Z,947.7780
2023-05-10T12:05:22.712Z,947.7722
2023-05-10T12:06:24.912Z,947.7811
2023-05-10T12:07:35.320Z,947.7711
2023-05-10T12:08:26.706Z,947.7578
2023-05-10T12:09:42.573Z,947.7560
2023-05-10T12:10:28.400Z,947.7606
2023-05-10T12:11:29.736Z,947.7369
2023-05-10T12:12:30.918Z,947.7366
2023-05-10T12:13:31.993Z,947.7372
2023-05-10T12:14:33.095Z,947.7400
2023-05-10T12:15:34.155Z,947.7478
2023-05-10T12:16:35.285Z,947.7178
2023-05-10T12:17:36.366Z,947.7111
2023-05-10T12:18:37.422Z,947.7039
2023-05-10T12:19:38.469Z,947.6939
2023-05-10T12:20:39.508Z,947.6861
2023-05-10T12:21:40.596Z,947.6761
2023-05-10T12:22:41.756Z,947.6939
2023-05-10T12:23:42.828Z,947.7083
2023-05-10T12:24:43.958Z,947.6872
2023-05-10T12:25:44.981Z,947.6967
2023-05-10T12:26:46.115Z,947.6911
2023-05-10T12:27:47.137Z,947.7000
2023-05-10T12:28:48.169Z,947.7111
2023-05-10T12:29:49.302Z,947.7183
2023-05-10T12:30:50.331Z,947.7017
2023-05-10T12:31:51.424Z,947.7139
2023-05-10T12:32:52.538Z,947.6744
2023-05-10T12:33:53.540Z,947.6661
2023-05-10T12:34:54.534Z,947.6550
2023-05-10T12:35:55.588Z,947.6378
2023-05-10T12:36:56.679Z,947.6406
2023-05-10T12:37:57.721Z,947.6334
2023-05-10T12:38:58.802Z,947.6111
2023-05-10T12:39:59.888Z,947.6228
2023-05-10T12:41:01.022Z,947.6122
2023-05-10T12:42:04.046Z,947.6011
2023-05-10T12:43:05.212Z,947.5800
2023-05-10T12:44:06.245Z,947.5861
2023-05-10T12:45:07.258Z,947.6178
2023-05-10T12:46:08.377Z,947.6250
2023-05-10T12:47:09.478Z,947.6039
2023-05-10T12:48:10.550Z,947.6061
2023-05-10T12:49:11.567Z,947.6017
2023-05-10T12:50:12.655Z,947.6066
2023-05-10T12:51:13.768Z,947.5944
2023-05-10T12:52:24.245Z,947.5661
2023-05-10T12:53:18.967Z,947.5817
2023-05-10T12:54:20.292Z,947.5481
2023-05-10T12:55:21.449Z,947.5489
2023-05-10T12:56:22.533Z,947.5394